createdAt,value
2019-03-27T00:00:27.873Z,0.00
2019-03-27T00:01:27.928Z,0.00
2019-03-27T00:02:27.982Z,0.00
2019-03-27T00:03:28.034Z,0.00
2019-03-27T00:04:28.087Z,0.00
2019-03-27T00:05:28.141Z,0.00
2019-03-27T00:06:28.194Z,0.00
2019-03-27T00:07:28.248Z,0.00
2019-03-27T00:08:28.300Z,0.00
2019-03-27T00:09:28.353Z,0.00
2019-03-27T00:10:28.408Z,0.00
2019-03-27T00:11:28.461Z,0.00
2019-03-27T00:12:28.515Z,0.00
2019-03-27T00:13:28.567Z,0.00
2019-03-27T00:14:28.620Z,0.00
2019-03-27T00:15:28.674Z,0.00
2019-03-27T00:16:28.729Z,0.00
2019-03-27T00:17:28.781Z,0.00
2019-03-27T00:18:28.835Z,0.00
2019-03-27T00:19:28.888Z,0.00
2019-03-27T00:20:28.941Z,0.00
2019-03-27T00:21:28.993Z,0.00
2019-03-27T00:22:29.047Z,0.00
2019-03-27T00:23:29.100Z,0.00
2019-03-27T00:24:29.155Z,0.00
2019-03-27T00:25:29.206Z,0.00
2019-03-27T00:26:29.261Z,0.00
2019-03-27T00:27:29.315Z,0.00
2019-03-27T00:28:29.369Z,0.00
2019-03-27T00:29:29.419Z,0.00
2019-03-27T00:30:29.476Z,0.00
2019-03-27T00:31:29.526Z,0.00
2019-03-27T00:32:29.581Z,0.00
2019-03-27T00:33:29.633Z,0.00
2019-03-27T00:34:29.687Z,0.00
2019-03-27T00:35:29.743Z,0.00
2019-03-27T00:36:29.794Z,0.00
2019-03-27T00:37:29.846Z,0.00
2019-03-27T00:38:29.967Z,0.00
2019-03-27T00:39:29.953Z,0.00
2019-03-27T00:40:30.008Z,0.00
2019-03-27T00:41:30.059Z,0.00
2019-03-27T00:42:30.114Z,0.00
2019-03-27T00:43:30.166Z,0.00
2019-03-27T00:44:30.219Z,0.00
2019-03-27T00:45:30.270Z,0.00
2019-03-27T00:46:30.323Z,0.00
2019-03-27T00:47:30.379Z,0.00
2019-03-27T00:48:30.432Z,0.00
2019-03-27T00:49:30.486Z,0.00
2019-03-27T00:50:30.539Z,0.00
2019-03-27T00:51:30.602Z,0.00
2019-03-27T00:52:30.645Z,0.00
2019-03-27T00:53:30.696Z,0.00
2019-03-27T00:54:30.753Z,0.00
2019-03-27T00:55:30.805Z,0.00
2019-03-27T00:56:30.861Z,0.00
2019-03-27T00:57:30.908Z,0.00
2019-03-27T00:58:30.963Z,0.00
2019-03-27T00:59:31.017Z,0.00
2019-03-27T01:00:31.072Z,0.00
2019-03-27T01:01:31.121Z,0.00
2019-03-27T01:02:31.175Z,0.00
2019-03-27T01:03:31.226Z,0.00
2019-03-27T01:04:31.281Z,0.00
2019-03-27T01:05:31.334Z,0.00
2019-03-27T01:06:31.411Z,0.00
2019-03-27T01:07:31.439Z,0.00
2019-03-27T01:08:31.494Z,0.00
2019-03-27T01:09:31.546Z,0.00
2019-03-27T01:10:31.599Z,0.00
2019-03-27T01:11:31.653Z,0.00
2019-03-27T01:12:31.707Z,0.00
2019-03-27T01:13:31.759Z,0.00
2019-03-27T01:14:31.812Z,0.00
2019-03-27T01:15:39.661Z,0.00
2019-03-27T01:16:31.918Z,0.00
2019-03-27T01:17:31.973Z,0.00
2019-03-27T01:18:32.031Z,0.00
2019-03-27T01:19:32.078Z,0.00
2019-03-27T01:20:32.131Z,0.00
2019-03-27T01:21:32.183Z,0.00
2019-03-27T01:22:32.236Z,0.00
2019-03-27T01:23:32.292Z,0.00
2019-03-27T01:24:32.342Z,0.00
2019-03-27T01:25:32.395Z,0.00
2019-03-27T01:26:32.449Z,0.00
2019-03-27T01:27:35.521Z,0.00
2019-03-27T01:28:32.555Z,0.00
2019-03-27T01:29:32.608Z,0.00
2019-03-27T01:30:32.661Z,0.00
2019-03-27T01:31:32.713Z,0.00
2019-03-27T01:32:32.767Z,0.00
2019-03-27T01:33:32.819Z,0.00
2019-03-27T01:34:32.872Z,0.00
2019-03-27T01:35:32.926Z,0.00
2019-03-27T01:36:32.979Z,0.00
2019-03-27T01:37:33.032Z,0.00
2019-03-27T01:38:33.145Z,0.00
2019-03-27T01:39:33.142Z,0.00
2019-03-27T01:40:33.190Z,0.00
2019-03-27T01:41:33.243Z,0.00
2019-03-27T01:42:33.297Z,0.00
2019-03-27T01:43:33.349Z,0.00
2019-03-27T01:44:33.401Z,0.00
2019-03-27T01:45:33.454Z,0.00
2019-03-27T01:46:33.507Z,0.00
2019-03-27T01:47:33.560Z,0.00
2019-03-27T01:48:33.613Z,0.00
2019-03-27T01:49:33.664Z,0.00
2019-03-27T01:50:33.719Z,0.00
2019-03-27T01:51:33.770Z,0.00
2019-03-27T01:52:33.823Z,0.00
2019-03-27T01:53:33.879Z,0.00
2019-03-27T01:54:33.929Z,0.00
2019-03-27T01:55:33.983Z,0.00
2019-03-27T01:56:34.035Z,0.00
2019-03-27T01:57:34.087Z,0.00
2019-03-27T01:58:34.139Z,0.00
2019-03-27T01:59:34.192Z,0.00
2019-03-27T02:00:34.246Z,0.00
2019-03-27T02:01:34.297Z,0.00
2019-03-27T02:02:34.350Z,0.00
2019-03-27T02:03:34.403Z,0.00
2019-03-27T02:04:34.457Z,0.00
2019-03-27T02:05:34.508Z,0.00
2019-03-27T02:06:34.560Z,0.00
2019-03-27T02:07:34.615Z,0.00
2019-03-27T02:08:34.666Z,0.00
2019-03-27T02:09:34.718Z,0.00
2019-03-27T02:10:34.772Z,0.00
2019-03-27T02:11:34.825Z,0.00
2019-03-27T02:12:34.876Z,0.00
2019-03-27T02:13:34.934Z,0.00
2019-03-27T02:14:34.981Z,0.00
2019-03-27T02:15:35.034Z,0.00
2019-03-27T02:16:35.088Z,0.00
2019-03-27T02:17:35.139Z,0.00
2019-03-27T02:18:35.192Z,0.00
2019-03-27T02:19:35.243Z,0.00
2019-03-27T02:20:35.297Z,0.00
2019-03-27T02:21:35.348Z,0.00
2019-03-27T02:22:35.402Z,0.00
2019-03-27T02:23:35.455Z,0.00
2019-03-27T02:24:35.508Z,0.00
2019-03-27T02:25:35.559Z,0.00
2019-03-27T02:26:35.611Z,0.00
2019-03-27T02:27:35.664Z,0.00
2019-03-27T02:28:35.718Z,0.00
2019-03-27T02:29:35.767Z,0.00
2019-03-27T02:30:35.823Z,0.00
2019-03-27T02:31:35.875Z,0.00
2019-03-27T02:32:35.926Z,0.00
2019-03-27T02:34:18.411Z,0.00
2019-03-27T02:35:18.464Z,0.00
2019-03-27T02:36:18.515Z,0.00
2019-03-27T02:37:18.579Z,0.00
2019-03-27T02:38:18.627Z,0.00
2019-03-27T02:39:18.673Z,0.00
2019-03-27T02:40:18.724Z,0.00
2019-03-27T02:41:18.776Z,0.00
2019-03-27T02:42:18.829Z,0.00
2019-03-27T02:43:18.885Z,0.00
2019-03-27T02:44:18.931Z,0.00
2019-03-27T02:45:18.983Z,0.00
2019-03-27T02:46:24.957Z,0.00
2019-03-27T02:47:19.087Z,0.00
2019-03-27T02:48:19.140Z,0.00
2019-03-27T02:49:19.197Z,0.00
2019-03-27T02:50:19.244Z,0.00
2019-03-27T02:51:19.300Z,0.00
2019-03-27T02:52:19.348Z,0.00
2019-03-27T02:53:19.401Z,0.00
2019-03-27T02:54:19.461Z,0.00
2019-03-27T02:55:19.505Z,0.00
2019-03-27T02:56:19.555Z,0.00
2019-03-27T02:57:19.607Z,0.00
2019-03-27T02:58:19.657Z,0.00
2019-03-27T02:59:19.710Z,0.00
2019-03-27T03:00:19.910Z,0.00
2019-03-27T03:01:19.813Z,0.00
2019-03-27T03:02:19.864Z,0.00
2019-03-27T03:03:19.917Z,0.00
2019-03-27T03:04:19.968Z,0.00
2019-03-27T03:05:20.027Z,0.00
2019-03-27T03:06:20.070Z,0.00
2019-03-27T03:07:20.122Z,0.00
2019-03-27T03:08:20.175Z,0.00
2019-03-27T03:09:20.226Z,0.00
2019-03-27T03:10:20.277Z,0.00
2019-03-27T03:11:20.331Z,0.00
2019-03-27T03:12:20.385Z,0.00
2019-03-27T03:13:20.434Z,0.00
2019-03-27T03:14:20.484Z,0.00
2019-03-27T03:15:20.534Z,0.00
2019-03-27T03:16:20.588Z,0.00
2019-03-27T03:17:20.643Z,0.00
2019-03-27T03:18:20.692Z,0.00
2019-03-27T03:19:20.740Z,0.00
2019-03-27T03:20:20.797Z,0.00
2019-03-27T03:21:20.845Z,0.00
2019-03-27T03:22:20.906Z,0.00
2019-03-27T03:23:20.948Z,0.00
2019-03-27T03:24:21.001Z,0.00
2019-03-27T03:25:21.050Z,0.00
2019-03-27T03:26:21.106Z,0.00
2019-03-27T03:27:21.153Z,0.00
2019-03-27T03:28:21.205Z,0.00
2019-03-27T03:29:21.262Z,0.00
2019-03-27T03:30:21.327Z,0.00
2019-03-27T03:31:21.358Z,0.00
2019-03-27T03:32:21.439Z,0.00
2019-03-27T03:34:03.892Z,0.00
2019-03-27T03:35:03.945Z,0.00
2019-03-27T03:36:03.996Z,0.00
2019-03-27T03:37:04.046Z,0.00
2019-03-27T03:38:04.097Z,0.00
2019-03-27T03:39:04.156Z,0.00
2019-03-27T03:40:04.199Z,0.00
2019-03-27T03:41:04.267Z,0.00
2019-03-27T03:42:04.303Z,0.00
2019-03-27T03:43:04.361Z,0.00
2019-03-27T03:44:04.420Z,0.00
2019-03-27T03:45:04.456Z,0.00
2019-03-27T03:46:04.507Z,0.00
2019-03-27T03:47:04.562Z,0.00
2019-03-27T03:48:04.610Z,0.00
2019-03-27T03:49:04.659Z,0.00
2019-03-27T03:50:04.710Z,0.00
2019-03-27T03:51:04.762Z,0.00
2019-03-27T03:52:04.814Z,0.00
2019-03-27T03:53:04.873Z,0.00
2019-03-27T03:54:04.930Z,0.00
2019-03-27T03:55:04.969Z,0.00
2019-03-27T03:56:05.023Z,0.00
2019-03-27T03:57:05.070Z,0.00
2019-03-27T03:58:05.118Z,0.00
2019-03-27T03:59:05.170Z,0.00
2019-03-27T04:00:05.222Z,0.00
2019-03-27T04:01:05.283Z,0.00
2019-03-27T04:02:05.325Z,0.00
2019-03-27T04:03:05.380Z,0.00
2019-03-27T04:04:05.426Z,0.00
2019-03-27T04:05:05.477Z,0.00
2019-03-27T04:06:05.527Z,0.00
2019-03-27T04:07:05.578Z,0.00
2019-03-27T04:08:05.634Z,0.00
2019-03-27T04:09:05.689Z,0.00
2019-03-27T04:10:05.731Z,0.00
2019-03-27T04:11:05.781Z,0.00
2019-03-27T04:12:05.833Z,0.00
2019-03-27T04:13:05.883Z,0.00
2019-03-27T04:14:05.937Z,0.00
2019-03-27T04:15:05.986Z,0.00
2019-03-27T04:16:06.053Z,0.00
2019-03-27T04:17:17.095Z,0.00
2019-03-27T04:18:06.138Z,0.00
2019-03-27T04:19:06.191Z,0.00
2019-03-27T04:20:06.240Z,0.00
2019-03-27T04:21:06.292Z,0.00
2019-03-27T04:22:06.343Z,0.00
2019-03-27T04:23:06.394Z,0.00
2019-03-27T04:24:06.444Z,0.00
2019-03-27T04:25:06.526Z,0.00
2019-03-27T04:26:10.259Z,0.00
2019-03-27T04:27:06.596Z,0.00
2019-03-27T04:28:06.648Z,0.00
2019-03-27T04:29:06.700Z,0.00
2019-03-27T04:30:06.749Z,0.00
2019-03-27T04:31:06.800Z,0.00
2019-03-27T04:32:06.865Z,0.00
2019-03-27T04:33:06.906Z,0.00
2019-03-27T04:34:06.955Z,0.00
2019-03-27T04:35:07.004Z,0.00
2019-03-27T04:36:07.054Z,0.00
2019-03-27T04:37:07.109Z,0.00
2019-03-27T04:38:07.157Z,0.00
2019-03-27T04:39:07.208Z,0.00
2019-03-27T04:40:07.258Z,0.00
2019-03-27T04:41:07.310Z,0.00
2019-03-27T04:42:07.362Z,0.00
2019-03-27T04:43:07.410Z,0.00
2019-03-27T04:44:07.463Z,0.00
2019-03-27T04:45:07.514Z,0.00
2019-03-27T04:46:07.563Z,0.00
2019-03-27T04:47:07.648Z,0.00
2019-03-27T04:48:07.667Z,0.00
2019-03-27T04:49:07.912Z,0.00
2019-03-27T04:50:07.768Z,4.00
2019-03-27T04:51:07.818Z,4.00
2019-03-27T04:52:07.868Z,0.00
2019-03-27T04:53:07.919Z,4.00
2019-03-27T04:54:07.970Z,4.00
2019-03-27T04:55:08.020Z,4.00
2019-03-27T04:56:08.070Z,4.00
2019-03-27T04:57:08.122Z,4.00
2019-03-27T04:58:08.171Z,12.00
2019-03-27T04:59:08.222Z,16.00
2019-03-27T05:00:08.273Z,16.00
2019-03-27T05:01:08.349Z,20.00
2019-03-27T05:02:08.373Z,24.00
2019-03-27T05:03:08.426Z,24.00
2019-03-27T05:04:08.475Z,28.00
2019-03-27T05:05:08.527Z,32.00
2019-03-27T05:06:08.576Z,36.00
2019-03-27T05:07:08.628Z,40.00
2019-03-27T05:08:08.683Z,48.00
2019-03-27T05:09:08.736Z,56.00
2019-03-27T05:10:08.778Z,68.00
2019-03-27T05:11:09.191Z,76.00
2019-03-27T05:12:08.892Z,88.00
2019-03-27T05:13:08.932Z,104.00
2019-03-27T05:14:08.981Z,116.00
2019-03-27T05:15:09.032Z,132.00
2019-03-27T05:16:09.083Z,148.00
2019-03-27T05:17:09.134Z,160.00
2019-03-27T05:18:09.186Z,180.00
2019-03-27T05:19:09.237Z,204.00
2019-03-27T05:20:09.285Z,228.00
2019-03-27T05:21:09.337Z,252.00
2019-03-27T05:22:09.388Z,272.00
2019-03-27T05:23:09.440Z,304.00
2019-03-27T05:24:09.489Z,328.00
2019-03-27T05:25:09.538Z,356.00
2019-03-27T05:26:09.588Z,388.00
2019-03-27T05:27:09.640Z,420.00
2019-03-27T05:28:09.691Z,452.00
2019-03-27T05:29:09.741Z,488.00
2019-03-27T05:30:09.790Z,524.00
2019-03-27T05:31:09.843Z,556.00
2019-03-27T05:32:09.893Z,596.00
2019-03-27T05:33:09.943Z,640.00
2019-03-27T05:34:10.304Z,680.00
2019-03-27T05:35:10.051Z,720.00
2019-03-27T05:36:10.416Z,764.00
2019-03-27T05:37:10.498Z,804.00
2019-03-27T05:38:10.196Z,844.00
2019-03-27T05:39:10.253Z,880.00
2019-03-27T05:40:10.298Z,924.00
2019-03-27T05:41:10.350Z,964.00
2019-03-27T05:42:10.433Z,1004.00
2019-03-27T05:43:10.449Z,1048.00
2019-03-27T05:44:10.502Z,1092.00
2019-03-27T05:45:10.555Z,1136.00
2019-03-27T05:46:10.602Z,1176.00
2019-03-27T05:47:10.651Z,1216.00
2019-03-27T05:48:10.702Z,1260.00
2019-03-27T05:49:10.754Z,1296.00
2019-03-27T05:50:10.803Z,1332.00
2019-03-27T05:51:10.852Z,1372.00
2019-03-27T05:52:10.905Z,1412.00
2019-03-27T05:53:10.956Z,1444.00
2019-03-27T05:54:11.007Z,1476.00
2019-03-27T05:55:11.057Z,1504.00
2019-03-27T05:56:11.115Z,1536.00
2019-03-27T05:57:11.157Z,1560.00
2019-03-27T05:58:11.208Z,1592.00
2019-03-27T05:59:11.257Z,1624.00
2019-03-27T06:00:11.309Z,1668.00
2019-03-27T06:01:11.366Z,1712.00
2019-03-27T06:02:11.409Z,1756.00
2019-03-27T06:03:11.460Z,1812.00
2019-03-27T06:04:11.595Z,1868.00
2019-03-27T06:05:11.562Z,1920.00
2019-03-27T06:06:11.613Z,1968.00
2019-03-27T06:07:11.664Z,2008.00
2019-03-27T06:08:11.713Z,2040.00
2019-03-27T06:09:11.765Z,2076.00
2019-03-27T06:10:11.813Z,2124.00
2019-03-27T06:11:11.864Z,2176.00
2019-03-27T06:12:11.917Z,2228.00
2019-03-27T06:13:11.966Z,2268.00
2019-03-27T06:14:12.016Z,2312.00
2019-03-27T06:15:12.069Z,2352.00
2019-03-27T06:16:12.117Z,2396.00
2019-03-27T06:17:12.257Z,2424.00
2019-03-27T06:18:13.353Z,2464.00
2019-03-27T06:19:12.269Z,2504.00
2019-03-27T06:20:12.321Z,2548.00
2019-03-27T06:21:12.372Z,2584.00
2019-03-27T06:22:14.955Z,2604.00
2019-03-27T06:23:12.473Z,2664.00
2019-03-27T06:24:12.525Z,2728.00
2019-03-27T06:25:12.599Z,2780.00
2019-03-27T06:26:12.629Z,2852.00
2019-03-27T06:27:12.676Z,2920.00
2019-03-27T06:28:12.727Z,3000.00
2019-03-27T06:29:15.694Z,3080.00
2019-03-27T06:30:12.827Z,3148.00
2019-03-27T06:31:12.882Z,3208.00
2019-03-27T06:32:12.929Z,3268.00
2019-03-27T06:33:12.984Z,3332.00
2019-03-27T06:34:13.031Z,3388.00
2019-03-27T06:35:13.658Z,3452.00
2019-03-27T06:36:13.134Z,3520.00
2019-03-27T06:37:13.184Z,3584.00
2019-03-27T06:38:13.234Z,3616.00
2019-03-27T06:39:13.285Z,3628.00
2019-03-27T06:40:13.339Z,3632.00
2019-03-27T06:41:13.392Z,3652.00
2019-03-27T06:42:13.441Z,3672.00
2019-03-27T06:43:13.490Z,3724.00
2019-03-27T06:44:13.539Z,3860.00
2019-03-27T06:45:13.604Z,4028.00
2019-03-27T06:46:13.642Z,4180.00
2019-03-27T06:47:13.700Z,4260.00
2019-03-27T06:48:25.701Z,4288.00
2019-03-27T06:49:13.797Z,4320.00
2019-03-27T06:50:13.846Z,4344.00
2019-03-27T06:51:13.898Z,4336.00
2019-03-27T06:52:13.950Z,4268.00
2019-03-27T06:53:14.001Z,4156.00
2019-03-27T06:54:14.052Z,4032.00
2019-03-27T06:55:14.103Z,3936.00
2019-03-27T06:56:14.156Z,3884.00
2019-03-27T06:57:14.208Z,3880.00
2019-03-27T06:58:14.259Z,3900.00
2019-03-27T06:59:14.309Z,3948.00
2019-03-27T07:00:14.370Z,4016.00
2019-03-27T07:01:14.413Z,4088.00
2019-03-27T07:02:14.463Z,4136.00
2019-03-27T07:03:14.960Z,4172.00
2019-03-27T07:04:14.594Z,4220.00
2019-03-27T07:05:14.621Z,4284.00
2019-03-27T07:06:14.669Z,4356.00
2019-03-27T07:07:14.719Z,4412.00
2019-03-27T07:08:14.773Z,4460.00
2019-03-27T07:09:14.840Z,4496.00
2019-03-27T07:10:14.875Z,4548.00
2019-03-27T07:11:14.928Z,4600.00
2019-03-27T07:12:21.121Z,4660.00
2019-03-27T07:13:15.031Z,4712.00
2019-03-27T07:14:15.084Z,4756.00
2019-03-27T07:15:15.135Z,4816.00
2019-03-27T07:16:15.187Z,4904.00
2019-03-27T07:17:15.241Z,5024.00
2019-03-27T07:18:15.293Z,5180.00
2019-03-27T07:19:15.345Z,5348.00
2019-03-27T07:20:15.395Z,5484.00
2019-03-27T07:21:15.448Z,5580.00
2019-03-27T07:22:15.500Z,5680.00
2019-03-27T07:23:15.553Z,5768.00
2019-03-27T07:24:15.603Z,5856.00
2019-03-27T07:25:15.658Z,5932.00
2019-03-27T07:26:15.710Z,5976.00
2019-03-27T07:27:15.761Z,5984.00
2019-03-27T07:28:15.815Z,5984.00
2019-03-27T07:29:18.921Z,6008.00
2019-03-27T07:30:15.920Z,6064.00
2019-03-27T07:31:15.973Z,6168.00
2019-03-27T07:32:16.026Z,6320.00
2019-03-27T07:33:16.079Z,6528.00
2019-03-27T07:34:16.130Z,6804.00
2019-03-27T07:35:16.183Z,7136.00
2019-03-27T07:36:16.237Z,7604.00
2019-03-27T07:37:16.291Z,8012.00
2019-03-27T07:38:16.342Z,8364.00
2019-03-27T07:39:16.443Z,8628.00
2019-03-27T07:40:16.449Z,8692.00
2019-03-27T07:41:16.502Z,8620.00
2019-03-27T07:42:16.556Z,8248.00
2019-03-27T07:43:16.608Z,8200.00
2019-03-27T07:44:16.662Z,8232.00
2019-03-27T07:45:16.716Z,8516.00
2019-03-27T07:46:16.768Z,8388.00
2019-03-27T07:47:16.823Z,8264.00
2019-03-27T07:48:16.876Z,8640.00
2019-03-27T07:49:16.930Z,9000.00
2019-03-27T07:50:16.983Z,9400.00
2019-03-27T07:51:17.037Z,10160.00
2019-03-27T07:52:17.092Z,10324.00
2019-03-27T07:53:17.146Z,10008.00
2019-03-27T07:54:17.199Z,10204.00
2019-03-27T07:55:19.601Z,10744.00
2019-03-27T07:56:17.308Z,11048.00
2019-03-27T07:57:17.361Z,11064.00
2019-03-27T07:58:17.415Z,10956.00
2019-03-27T07:59:17.469Z,10968.00
2019-03-27T08:00:17.528Z,11092.00
2019-03-27T08:01:17.579Z,11288.00
2019-03-27T08:02:17.632Z,11456.00
2019-03-27T08:03:17.687Z,11644.00
2019-03-27T08:04:17.741Z,11892.00
2019-03-27T08:05:17.798Z,12268.00
2019-03-27T08:06:17.850Z,12512.00
2019-03-27T08:07:26.689Z,12632.00
2019-03-27T08:08:17.958Z,12688.00
2019-03-27T08:09:18.012Z,12704.00
2019-03-27T08:10:18.066Z,12688.00
2019-03-27T08:11:18.199Z,12768.00
2019-03-27T08:12:18.181Z,12736.00
2019-03-27T08:13:18.232Z,12368.00
2019-03-27T08:14:18.286Z,11584.00
2019-03-27T08:15:18.351Z,10576.00
2019-03-27T08:16:18.397Z,9660.00
2019-03-27T08:17:18.455Z,9096.00
2019-03-27T08:18:18.506Z,8840.00
2019-03-27T08:19:18.560Z,8872.00
2019-03-27T08:20:18.617Z,8968.00
2019-03-27T08:21:18.671Z,8952.00
2019-03-27T08:22:18.731Z,8832.00
2019-03-27T08:23:18.790Z,8752.00
2019-03-27T08:24:18.838Z,8748.00
2019-03-27T08:25:18.892Z,8772.00
2019-03-27T08:26:18.999Z,8744.00
2019-03-27T08:27:19.005Z,8652.00
2019-03-27T08:28:19.059Z,8560.00
2019-03-27T08:29:19.114Z,8536.00
2019-03-27T08:30:19.172Z,8636.00
2019-03-27T08:31:19.223Z,8908.00
2019-03-27T08:32:19.279Z,9184.00
2019-03-27T08:33:19.339Z,9508.00
2019-03-27T08:34:19.390Z,9860.00
2019-03-27T08:35:20.005Z,10260.00
2019-03-27T08:36:19.500Z,10624.00
2019-03-27T08:37:19.554Z,10908.00
2019-03-27T08:38:19.608Z,11132.00
2019-03-27T08:39:19.665Z,11456.00
2019-03-27T08:40:19.722Z,11888.00
2019-03-27T08:41:19.774Z,12144.00
2019-03-27T08:42:19.830Z,12232.00
2019-03-27T08:43:21.842Z,12596.00
2019-03-27T08:44:19.945Z,13152.00
2019-03-27T08:45:20.000Z,13280.00
2019-03-27T08:46:20.052Z,13096.00
2019-03-27T08:47:20.107Z,13040.00
2019-03-27T08:48:20.163Z,12848.00
2019-03-27T08:49:22.194Z,12716.00
2019-03-27T08:50:20.272Z,12760.00
2019-03-27T08:51:20.330Z,13248.00
2019-03-27T08:52:20.384Z,14008.00
2019-03-27T08:53:20.441Z,14572.00
2019-03-27T08:54:20.496Z,14976.00
2019-03-27T08:55:20.553Z,15336.00
2019-03-27T08:56:20.640Z,15448.00
2019-03-27T08:57:20.673Z,15476.00
2019-03-27T08:58:20.725Z,15408.00
2019-03-27T08:59:20.784Z,15548.00
2019-03-27T09:00:21.413Z,15560.00
2019-03-27T09:01:20.891Z,15716.00
2019-03-27T09:02:20.949Z,15552.00
2019-03-27T09:03:21.002Z,15020.00
2019-03-27T09:04:21.059Z,14688.00
2019-03-27T09:05:21.117Z,14232.00
2019-03-27T09:06:33.118Z,13860.00
2019-03-27T09:07:21.230Z,13540.00
2019-03-27T09:08:21.304Z,13072.00
2019-03-27T09:09:21.342Z,12792.00
2019-03-27T09:10:21.399Z,13032.00
2019-03-27T09:11:21.455Z,12832.00
2019-03-27T09:12:21.513Z,12432.00
2019-03-27T09:13:21.572Z,12212.00
2019-03-27T09:14:21.626Z,12056.00
2019-03-27T09:15:21.686Z,12140.00
2019-03-27T09:16:21.741Z,12460.00
2019-03-27T09:17:21.799Z,12708.00
2019-03-27T09:18:21.858Z,12720.00
2019-03-27T09:19:34.540Z,12740.00
2019-03-27T09:20:21.970Z,12884.00
2019-03-27T09:21:22.026Z,12868.00
2019-03-27T09:22:22.085Z,12984.00
2019-03-27T09:23:22.141Z,13500.00
2019-03-27T09:24:22.199Z,13980.00
2019-03-27T09:25:22.257Z,14332.00
2019-03-27T09:26:22.312Z,14624.00
2019-03-27T09:27:23.089Z,14748.00
2019-03-27T09:28:23.094Z,14744.00
2019-03-27T09:29:22.900Z,14580.00
2019-03-27T09:30:22.599Z,14376.00
2019-03-27T09:31:22.952Z,14208.00
2019-03-27T09:32:22.656Z,13904.00
2019-03-27T09:33:22.715Z,13608.00
2019-03-27T09:34:22.772Z,13544.00
2019-03-27T09:35:22.830Z,13124.00
2019-03-27T09:36:22.887Z,12612.00
2019-03-27T09:37:22.946Z,11988.00
2019-03-27T09:38:23.003Z,11384.00
2019-03-27T09:39:23.060Z,10908.00
2019-03-27T09:40:23.117Z,10520.00
2019-03-27T09:41:23.220Z,10228.00
2019-03-27T09:42:23.234Z,10008.00
2019-03-27T09:43:23.289Z,9860.00
2019-03-27T09:44:23.348Z,9772.00
2019-03-27T09:45:23.405Z,9756.00
2019-03-27T09:46:23.463Z,9776.00
2019-03-27T09:47:23.519Z,9900.00
2019-03-27T09:48:23.580Z,10072.00
2019-03-27T09:49:23.635Z,10272.00
2019-03-27T09:50:27.302Z,10492.00
2019-03-27T09:51:23.750Z,10812.00
2019-03-27T09:52:23.812Z,11228.00
2019-03-27T09:53:23.865Z,11520.00
2019-03-27T09:54:23.922Z,11748.00
2019-03-27T09:55:24.287Z,11940.00
2019-03-27T09:56:24.036Z,12112.00
2019-03-27T09:57:24.096Z,12408.00
2019-03-27T09:58:24.152Z,12712.00
2019-03-27T09:59:24.213Z,12940.00
2019-03-27T10:00:24.267Z,13100.00
2019-03-27T10:01:24.346Z,13244.00
2019-03-27T10:02:24.383Z,13336.00
2019-03-27T10:03:24.440Z,13292.00
2019-03-27T10:04:24.496Z,13076.00
2019-03-27T10:05:24.561Z,12744.00
2019-03-27T10:06:24.615Z,12492.00
2019-03-27T10:07:25.829Z,12492.00
2019-03-27T10:08:25.264Z,12616.00
2019-03-27T10:09:24.785Z,12680.00
2019-03-27T10:10:24.866Z,12664.00
2019-03-27T10:11:24.900Z,12660.00
2019-03-27T10:12:24.957Z,12600.00
2019-03-27T10:13:25.015Z,12356.00
2019-03-27T10:14:25.072Z,12072.00
2019-03-27T10:15:25.137Z,11876.00
2019-03-27T10:16:25.199Z,11800.00
2019-03-27T10:17:25.253Z,11860.00
2019-03-27T10:18:25.314Z,12024.00
2019-03-27T10:19:25.370Z,12208.00
2019-03-27T10:20:25.440Z,12324.00
2019-03-27T10:21:25.579Z,12408.00
2019-03-27T10:22:25.536Z,12552.00
2019-03-27T10:23:25.593Z,12796.00
2019-03-27T10:24:25.646Z,13128.00
2019-03-27T10:25:25.704Z,13484.00
2019-03-27T10:26:25.761Z,13812.00
2019-03-27T10:27:25.818Z,14148.00
2019-03-27T10:28:25.874Z,14552.00
2019-03-27T10:29:25.932Z,14996.00
2019-03-27T10:30:25.989Z,15428.00
2019-03-27T10:31:26.050Z,15836.00
2019-03-27T10:32:26.106Z,16216.00
2019-03-27T10:33:26.162Z,16552.00
2019-03-27T10:34:26.221Z,16852.00
2019-03-27T10:35:26.279Z,17084.00
2019-03-27T10:36:26.336Z,17228.00
2019-03-27T10:37:26.394Z,17536.00
2019-03-27T10:38:26.451Z,17664.00
2019-03-27T10:39:26.537Z,17760.00
2019-03-27T10:40:26.570Z,17760.00
2019-03-27T10:41:26.982Z,17632.00
2019-03-27T10:42:26.682Z,17632.00
2019-03-27T10:43:26.742Z,17664.00
2019-03-27T10:44:26.803Z,17824.00
2019-03-27T10:45:26.859Z,18112.00
2019-03-27T10:46:26.915Z,18432.00
2019-03-27T10:47:26.975Z,18688.00
2019-03-27T10:48:27.044Z,18944.00
2019-03-27T10:49:27.092Z,19136.00
2019-03-27T10:50:27.147Z,19232.00
2019-03-27T10:51:27.208Z,19424.00
2019-03-27T10:52:27.265Z,19488.00
2019-03-27T10:53:27.328Z,19584.00
2019-03-27T10:54:27.383Z,19712.00
2019-03-27T10:55:27.441Z,19776.00
2019-03-27T10:56:27.499Z,20352.00
2019-03-27T10:57:27.558Z,19776.00
2019-03-27T10:58:28.311Z,20096.00
2019-03-27T10:59:27.676Z,20480.00
2019-03-27T11:00:27.735Z,20512.00
2019-03-27T11:01:27.796Z,20288.00
2019-03-27T11:02:28.160Z,20160.00
2019-03-27T11:03:27.910Z,20448.00
2019-03-27T11:04:27.972Z,21120.00
2019-03-27T11:05:28.031Z,21632.00
2019-03-27T11:06:28.686Z,21824.00
2019-03-27T11:07:28.804Z,22176.00
2019-03-27T11:08:28.207Z,22688.00
2019-03-27T11:09:28.266Z,23584.00
2019-03-27T11:10:32.091Z,24544.00
2019-03-27T11:11:28.385Z,25056.00
2019-03-27T11:12:28.444Z,26752.00
2019-03-27T11:13:28.504Z,28064.00
2019-03-27T11:14:37.722Z,33792.00
2019-03-27T11:15:28.621Z,32640.00
2019-03-27T11:16:28.683Z,32704.00
2019-03-27T11:17:28.746Z,31456.00
2019-03-27T11:18:28.801Z,29120.00
2019-03-27T11:19:28.899Z,23648.00
2019-03-27T11:20:31.184Z,24064.00
2019-03-27T11:22:11.420Z,32960.00
2019-03-27T11:23:11.480Z,21856.00
2019-03-27T11:24:11.539Z,20928.00
2019-03-27T11:25:11.601Z,19360.00
2019-03-27T11:26:11.660Z,18272.00
2019-03-27T11:27:11.721Z,17696.00
2019-03-27T11:28:11.780Z,17192.00
2019-03-27T11:29:11.841Z,16536.00
2019-03-27T11:30:11.938Z,15484.00
2019-03-27T11:31:11.961Z,14444.00
2019-03-27T11:32:12.019Z,13552.00
2019-03-27T11:33:12.084Z,12864.00
2019-03-27T11:34:12.139Z,12388.00
2019-03-27T11:35:12.517Z,12216.00
2019-03-27T11:36:12.258Z,12172.00
2019-03-27T11:37:12.318Z,12108.00
2019-03-27T11:38:12.379Z,11988.00
2019-03-27T11:39:12.437Z,11924.00
2019-03-27T11:40:12.501Z,11996.00
2019-03-27T11:41:12.556Z,12060.00
2019-03-27T11:42:15.235Z,12260.00
2019-03-27T11:43:12.674Z,12448.00
2019-03-27T11:44:12.929Z,12584.00
2019-03-27T11:45:12.790Z,12708.00
2019-03-27T11:46:13.182Z,12784.00
2019-03-27T11:47:12.906Z,12900.00
2019-03-27T11:48:12.968Z,13044.00
2019-03-27T11:49:13.026Z,13220.00
2019-03-27T11:50:13.081Z,13424.00
2019-03-27T11:51:13.140Z,13608.00
2019-03-27T11:52:13.199Z,13800.00
2019-03-27T11:53:13.257Z,14096.00
2019-03-27T11:54:13.318Z,14520.00
2019-03-27T11:55:13.374Z,15016.00
2019-03-27T11:56:13.433Z,15340.00
2019-03-27T11:57:14.189Z,15488.00
2019-03-27T11:58:15.073Z,15624.00
2019-03-27T11:59:13.606Z,15928.00
2019-03-27T12:00:13.663Z,16380.00
2019-03-27T12:01:14.029Z,16800.00
2019-03-27T12:02:13.781Z,16988.00
2019-03-27T12:03:13.837Z,16908.00
2019-03-27T12:04:13.899Z,16692.00
2019-03-27T12:05:13.954Z,16748.00
2019-03-27T12:06:14.013Z,16988.00
2019-03-27T12:07:14.072Z,17272.00
2019-03-27T12:08:14.130Z,17632.00
2019-03-27T12:09:14.190Z,17600.00
2019-03-27T12:10:14.245Z,17632.00
2019-03-27T12:11:15.027Z,17760.00
2019-03-27T12:12:14.363Z,17824.00
2019-03-27T12:13:14.424Z,17760.00
2019-03-27T12:14:14.482Z,17632.00
2019-03-27T12:15:14.538Z,17472.00
2019-03-27T12:16:14.614Z,17260.00
2019-03-27T12:17:14.655Z,17536.00
2019-03-27T12:18:14.712Z,17728.00
2019-03-27T12:19:14.777Z,17824.00
2019-03-27T12:20:14.830Z,17760.00
2019-03-27T12:21:14.889Z,17856.00
2019-03-27T12:22:14.946Z,18048.00
2019-03-27T12:23:15.005Z,18272.00
2019-03-27T12:24:15.064Z,18432.00
2019-03-27T12:25:15.123Z,18400.00
2019-03-27T12:26:15.181Z,18624.00
2019-03-27T12:27:15.240Z,18752.00
2019-03-27T12:28:15.299Z,18848.00
2019-03-27T12:29:18.069Z,19072.00